sensor_id;sensor_type;location;lat;lon;timestamp;P1;durP1;ratioP1;P2;durP2;ratioP2
36001;SDS011;22070;50.922;5.430;2023-11-19T00:02:18;0.08;;;0.08;;
36001;SDS011;22070;50.922;5.430;2023-11-19T00:04:44;0.00;;;0.00;;
36001;SDS011;22070;50.922;5.430;2023-11-19T00:07:09;0.00;;;0.00;;
36001;SDS011;22070;50.922;5.430;2023-11-19T00:09:37;0.00;;;0.00;;
36001;SDS011;22070;50.922;5.430;2023-11-19T00:12:03;0.00;;;0.00;;
36001;SDS011;22070;50.922;5.430;2023-11-19T00:14:30;0.00;;;0.00;;
36001;SDS011;22070;50.922;5.430;2023-11-19T00:16:55;0.00;;;0.00;;
36001;SDS011;22070;50.922;5.430;2023-11-19T00:19:21;0.00;;;0.00;;
36001;SDS011;22070;50.922;5.430;2023-11-19T00:21:47;0.00;;;0.00;;
36001;SDS011;22070;50.922;5.430;2023-11-19T00:24:13;0.00;;;0.00;;
36001;SDS011;22070;50.922;5.430;2023-11-19T00:26:41;0.00;;;0.00;;
36001;SDS011;22070;50.922;5.430;2023-11-19T00:29:07;0.00;;;0.00;;
36001;SDS011;22070;50.922;5.430;2023-11-19T00:31:33;0.00;;;0.00;;
36001;SDS011;22070;50.922;5.430;2023-11-19T00:33:59;0.00;;;0.00;;
36001;SDS011;22070;50.922;5.430;2023-11-19T00:36:24;0.00;;;0.00;;
36001;SDS011;22070;50.922;5.430;2023-11-19T00:38:50;0.00;;;0.00;;
36001;SDS011;22070;50.922;5.430;2023-11-19T00:41:17;0.38;;;0.38;;
36001;SDS011;22070;50.922;5.430;2023-11-19T00:43:44;0.00;;;0.00;;
36001;SDS011;22070;50.922;5.430;2023-11-19T00:46:09;0.00;;;0.00;;
36001;SDS011;22070;50.922;5.430;2023-11-19T00:48:38;0.00;;;0.00;;
36001;SDS011;22070;50.922;5.430;2023-11-19T00:51:05;0.00;;;0.00;;
36001;SDS011;22070;50.922;5.430;2023-11-19T00:53:31;0.00;;;0.00;;
36001;SDS011;22070;50.922;5.430;2023-11-19T00:55:57;0.10;;;0.10;;
36001;SDS011;22070;50.922;5.430;2023-11-19T00:58:23;0.00;;;0.00;;
36001;SDS011;22070;50.922;5.430;2023-11-19T01:00:49;0.32;;;0.32;;
36001;SDS011;22070;50.922;5.430;2023-11-19T01:03:14;0.00;;;0.00;;
36001;SDS011;22070;50.922;5.430;2023-11-19T01:05:43;0.00;;;0.00;;
36001;SDS011;22070;50.922;5.430;2023-11-19T01:08:11;0.00;;;0.00;;
36001;SDS011;22070;50.922;5.430;2023-11-19T01:10:37;0.00;;;0.00;;
36001;SDS011;22070;50.922;5.430;2023-11-19T01:13:03;0.00;;;0.00;;
36001;SDS011;22070;50.922;5.430;2023-11-19T01:15:30;0.00;;;0.00;;
36001;SDS011;22070;50.922;5.430;2023-11-19T01:17:57;0.00;;;0.00;;
36001;SDS011;22070;50.922;5.430;2023-11-19T01:20:22;0.10;;;0.10;;
36001;SDS011;22070;50.922;5.430;2023-11-19T01:22:48;0.00;;;0.00;;
36001;SDS011;22070;50.922;5.430;2023-11-19T01:25:14;0.00;;;0.00;;
36001;SDS011;22070;50.922;5.430;2023-11-19T01:27:40;0.10;;;0.10;;
36001;SDS011;22070;50.922;5.430;2023-11-19T01:30:06;0.40;;;0.40;;
36001;SDS011;22070;50.922;5.430;2023-11-19T01:32:34;0.00;;;0.00;;
36001;SDS011;22070;50.922;5.430;2023-11-19T01:35:01;0.00;;;0.00;;
36001;SDS011;22070;50.922;5.430;2023-11-19T01:37:28;0.00;;;0.00;;
36001;SDS011;22070;50.922;5.430;2023-11-19T01:39:54;0.03;;;0.03;;
36001;SDS011;22070;50.922;5.430;2023-11-19T01:42:19;1.63;;;1.53;;
36001;SDS011;22070;50.922;5.430;2023-11-19T01:44:54;0.40;;;0.40;;
36001;SDS011;22070;50.922;5.430;2023-11-19T01:47:25;0.08;;;0.08;;
36001;SDS011;22070;50.922;5.430;2023-11-19T01:49:51;0.00;;;0.00;;
36001;SDS011;22070;50.922;5.430;2023-11-19T01:52:17;0.10;;;0.10;;
36001;SDS011;22070;50.922;5.430;2023-11-19T01:54:43;0.30;;;0.30;;
36001;SDS011;22070;50.922;5.430;2023-11-19T01:57:10;0.22;;;0.22;;
36001;SDS011;22070;50.922;5.430;2023-11-19T01:59:36;0.93;;;0.57;;
36001;SDS011;22070;50.922;5.430;2023-11-19T02:02:03;2.25;;;0.75;;
36001;SDS011;22070;50.922;5.430;2023-11-19T02:04:30;0.00;;;0.00;;
36001;SDS011;22070;50.922;5.430;2023-11-19T02:06:57;0.32;;;0.32;;
36001;SDS011;22070;50.922;5.430;2023-11-19T02:09:24;0.22;;;0.22;;
36001;SDS011;22070;50.922;5.430;2023-11-19T02:11:50;0.00;;;0.00;;
36001;SDS011;22070;50.922;5.430;2023-11-19T02:14:16;0.05;;;0.05;;
36001;SDS011;22070;50.922;5.430;2023-11-19T02:16:43;0.00;;;0.00;;
36001;SDS011;22070;50.922;5.430;2023-11-19T02:19:08;0.00;;;0.00;;
36001;SDS011;22070;50.922;5.430;2023-11-19T02:24:05;0.45;;;0.45;;
36001;SDS011;22070;50.922;5.430;2023-11-19T02:26:40;0.20;;;0.20;;
36001;SDS011;22070;50.922;5.430;2023-11-19T02:29:14;0.00;;;0.00;;
36001;SDS011;22070;50.922;5.430;2023-11-19T02:31:40;0.25;;;0.25;;
36001;SDS011;22070;50.922;5.430;2023-11-19T02:34:05;0.00;;;0.00;;
36001;SDS011;22070;50.922;5.430;2023-11-19T02:36:31;0.00;;;0.00;;
36001;SDS011;22070;50.922;5.430;2023-11-19T02:38:57;5.43;;;1.77;;
36001;SDS011;22070;50.922;5.430;2023-11-19T02:41:23;0.00;;;0.00;;
36001;SDS011;22070;50.922;5.430;2023-11-19T02:43:49;22.17;;;2.67;;
36001;SDS011;22070;50.922;5.430;2023-11-19T02:46:15;0.23;;;0.17;;
36001;SDS011;22070;50.922;5.430;2023-11-19T02:48:42;0.50;;;0.32;;
36001;SDS011;22070;50.922;5.430;2023-11-19T02:51:09;0.20;;;0.20;;
36001;SDS011;22070;50.922;5.430;2023-11-19T02:53:35;0.00;;;0.00;;
36001;SDS011;22070;50.922;5.430;2023-11-19T02:56:04;0.00;;;0.00;;
36001;SDS011;22070;50.922;5.430;2023-11-19T02:58:44;0.65;;;0.32;;
36001;SDS011;22070;50.922;5.430;2023-11-19T03:01:11;0.00;;;0.00;;
36001;SDS011;22070;50.922;5.430;2023-11-19T03:03:48;0.00;;;0.00;;
36001;SDS011;22070;50.922;5.430;2023-11-19T03:06:19;0.03;;;0.03;;
36001;SDS011;22070;50.922;5.430;2023-11-19T03:08:45;0.10;;;0.10;;
36001;SDS011;22070;50.922;5.430;2023-11-19T03:11:10;0.20;;;0.20;;
36001;SDS011;22070;50.922;5.430;2023-11-19T03:13:36;1.40;;;0.53;;
36001;SDS011;22070;50.922;5.430;2023-11-19T03:16:01;0.00;;;0.00;;
36001;SDS011;22070;50.922;5.430;2023-11-19T03:18:27;11.23;;;0.67;;
36001;SDS011;22070;50.922;5.430;2023-11-19T03:20:53;24.23;;;0.75;;
36001;SDS011;22070;50.922;5.430;2023-11-19T03:23:19;0.20;;;0.20;;
36001;SDS011;22070;50.922;5.430;2023-11-19T03:25:44;0.00;;;0.00;;
36001;SDS011;22070;50.922;5.430;2023-11-19T03:28:10;0.10;;;0.10;;
36001;SDS011;22070;50.922;5.430;2023-11-19T03:30:36;0.00;;;0.00;;
36001;SDS011;22070;50.922;5.430;2023-11-19T03:33:02;0.43;;;0.43;;
36001;SDS011;22070;50.922;5.430;2023-11-19T03:35:28;0.07;;;0.07;;
36001;SDS011;22070;50.922;5.430;2023-11-19T03:37:54;0.57;;;0.40;;
36001;SDS011;22070;50.922;5.430;2023-11-19T03:40:19;0.00;;;0.00;;
36001;SDS011;22070;50.922;5.430;2023-11-19T03:42:45;0.00;;;0.00;;
36001;SDS011;22070;50.922;5.430;2023-11-19T03:45:11;0.00;;;0.00;;
36001;SDS011;22070;50.922;5.430;2023-11-19T03:47:37;0.10;;;0.10;;
36001;SDS011;22070;50.922;5.430;2023-11-19T03:50:04;0.20;;;0.20;;
36001;SDS011;22070;50.922;5.430;2023-11-19T03:52:30;0.00;;;0.00;;
36001;SDS011;22070;50.922;5.430;2023-11-19T03:54:56;0.00;;;0.00;;
36001;SDS011;22070;50.922;5.430;2023-11-19T03:57:24;0.17;;;0.17;;
36001;SDS011;22070;50.922;5.430;2023-11-19T03:59:49;0.00;;;0.00;;
36001;SDS011;22070;50.922;5.430;2023-11-19T04:02:15;3.00;;;1.03;;
36001;SDS011;22070;50.922;5.430;2023-11-19T04:04:41;0.15;;;0.15;;
36001;SDS011;22070;50.922;5.430;2023-11-19T04:07:07;0.00;;;0.00;;
36001;SDS011;22070;50.922;5.430;2023-11-19T04:09:33;0.00;;;0.00;;
36001;SDS011;22070;50.922;5.430;2023-11-19T04:11:59;1.00;;;0.90;;
36001;SDS011;22070;50.922;5.430;2023-11-19T04:14:25;0.00;;;0.00;;
36001;SDS011;22070;50.922;5.430;2023-11-19T04:16:51;11.20;;;0.65;;
36001;SDS011;22070;50.922;5.430;2023-11-19T04:19:18;0.20;;;0.10;;
36001;SDS011;22070;50.922;5.430;2023-11-19T04:21:44;15.88;;;2.13;;
36001;SDS011;22070;50.922;5.430;2023-11-19T04:24:09;9.10;;;1.90;;
36001;SDS011;22070;50.922;5.430;2023-11-19T04:26:42;12.13;;;1.60;;
36001;SDS011;22070;50.922;5.430;2023-11-19T04:29:11;10.77;;;1.52;;
36001;SDS011;22070;50.922;5.430;2023-11-19T04:31:38;12.23;;;1.92;;
36001;SDS011;22070;50.922;5.430;2023-11-19T04:34:04;13.23;;;2.00;;
36001;SDS011;22070;50.922;5.430;2023-11-19T04:36:31;11.07;;;1.52;;
36001;SDS011;22070;50.922;5.430;2023-11-19T04:38:58;12.57;;;1.95;;
36001;SDS011;22070;50.922;5.430;2023-11-19T04:41:24;9.50;;;1.80;;
36001;SDS011;22070;50.922;5.430;2023-11-19T04:43:52;10.15;;;2.17;;
36001;SDS011;22070;50.922;5.430;2023-11-19T04:46:18;8.73;;;1.77;;
36001;SDS011;22070;50.922;5.430;2023-11-19T04:48:44;12.57;;;1.60;;
36001;SDS011;22070;50.922;5.430;2023-11-19T04:51:10;15.68;;;1.98;;
36001;SDS011;22070;50.922;5.430;2023-11-19T04:53:35;13.90;;;2.13;;
36001;SDS011;22070;50.922;5.430;2023-11-19T04:56:07;8.38;;;2.45;;
36001;SDS011;22070;50.922;5.430;2023-11-19T04:58:34;15.25;;;1.88;;
36001;SDS011;22070;50.922;5.430;2023-11-19T05:01:00;19.38;;;2.40;;
36001;SDS011;22070;50.922;5.430;2023-11-19T05:03:26;14.00;;;1.63;;
36001;SDS011;22070;50.922;5.430;2023-11-19T05:05:52;18.93;;;2.10;;
36001;SDS011;22070;50.922;5.430;2023-11-19T05:08:18;8.60;;;1.42;;
36001;SDS011;22070;50.922;5.430;2023-11-19T05:10:44;15.20;;;2.13;;
36001;SDS011;22070;50.922;5.430;2023-11-19T05:13:10;9.20;;;1.40;;
36001;SDS011;22070;50.922;5.430;2023-11-19T05:15:35;17.23;;;2.13;;
36001;SDS011;22070;50.922;5.430;2023-11-19T05:18:01;15.53;;;1.70;;
36001;SDS011;22070;50.922;5.430;2023-11-19T05:20:27;15.53;;;2.93;;
36001;SDS011;22070;50.922;5.430;2023-11-19T05:22:52;10.53;;;1.50;;
36001;SDS011;22070;50.922;5.430;2023-11-19T05:25:18;8.47;;;1.43;;
36001;SDS011;22070;50.922;5.430;2023-11-19T05:27:45;12.43;;;1.83;;
36001;SDS011;22070;50.922;5.430;2023-11-19T05:30:11;15.13;;;1.67;;
36001;SDS011;22070;50.922;5.430;2023-11-19T05:32:36;16.27;;;1.77;;
36001;SDS011;22070;50.922;5.430;2023-11-19T05:35:02;12.27;;;1.80;;
36001;SDS011;22070;50.922;5.430;2023-11-19T05:37:28;25.53;;;2.23;;
36001;SDS011;22070;50.922;5.430;2023-11-19T05:39:54;14.40;;;1.95;;
36001;SDS011;22070;50.922;5.430;2023-11-19T05:42:19;11.23;;;1.67;;
36001;SDS011;22070;50.922;5.430;2023-11-19T05:44:45;13.37;;;2.13;;
36001;SDS011;22070;50.922;5.430;2023-11-19T05:47:11;18.77;;;2.63;;
36001;SDS011;22070;50.922;5.430;2023-11-19T05:49:37;13.27;;;1.90;;
36001;SDS011;22070;50.922;5.430;2023-11-19T05:52:03;19.52;;;1.42;;
36001;SDS011;22070;50.922;5.430;2023-11-19T05:54:32;16.55;;;2.92;;
36001;SDS011;22070;50.922;5.430;2023-11-19T05:57:03;16.90;;;2.72;;
36001;SDS011;22070;50.922;5.430;2023-11-19T05:59:34;14.68;;;2.35;;
36001;SDS011;22070;50.922;5.430;2023-11-19T06:04:27;9.77;;;1.52;;
36001;SDS011;22070;50.922;5.430;2023-11-19T06:06:53;10.20;;;1.63;;
36001;SDS011;22070;50.922;5.430;2023-11-19T06:09:22;19.30;;;2.00;;
36001;SDS011;22070;50.922;5.430;2023-11-19T06:11:51;13.57;;;1.65;;
36001;SDS011;22070;50.922;5.430;2023-11-19T06:14:17;7.85;;;1.25;;
36001;SDS011;22070;50.922;5.430;2023-11-19T06:16:43;14.45;;;1.70;;
36001;SDS011;22070;50.922;5.430;2023-11-19T06:19:09;23.13;;;2.20;;
36001;SDS011;22070;50.922;5.430;2023-11-19T06:21:36;13.75;;;1.70;;
36001;SDS011;22070;50.922;5.430;2023-11-19T06:24:02;18.33;;;1.98;;
36001;SDS011;22070;50.922;5.430;2023-11-19T06:26:28;14.68;;;2.17;;
36001;SDS011;22070;50.922;5.430;2023-11-19T06:28:54;12.73;;;1.85;;
36001;SDS011;22070;50.922;5.430;2023-11-19T06:31:19;16.65;;;2.78;;
36001;SDS011;22070;50.922;5.430;2023-11-19T06:33:46;19.00;;;2.33;;
36001;SDS011;22070;50.922;5.430;2023-11-19T06:36:14;12.88;;;1.65;;
36001;SDS011;22070;50.922;5.430;2023-11-19T06:38:41;18.92;;;1.63;;
36001;SDS011;22070;50.922;5.430;2023-11-19T06:41:07;16.03;;;1.60;;
36001;SDS011;22070;50.922;5.430;2023-11-19T06:46:00;17.13;;;1.63;;
36001;SDS011;22070;50.922;5.430;2023-11-19T06:48:26;10.95;;;1.75;;
36001;SDS011;22070;50.922;5.430;2023-11-19T06:50:52;23.60;;;2.60;;
36001;SDS011;22070;50.922;5.430;2023-11-19T06:53:18;23.58;;;2.47;;
36001;SDS011;22070;50.922;5.430;2023-11-19T06:55:44;15.50;;;1.40;;
36001;SDS011;22070;50.922;5.430;2023-11-19T06:58:10;15.00;;;2.30;;
36001;SDS011;22070;50.922;5.430;2023-11-19T07:00:37;19.67;;;2.10;;
36001;SDS011;22070;50.922;5.430;2023-11-19T07:03:02;20.95;;;2.10;;
36001;SDS011;22070;50.922;5.430;2023-11-19T07:05:28;15.50;;;2.70;;
36001;SDS011;22070;50.922;5.430;2023-11-19T07:07:55;15.18;;;2.22;;
36001;SDS011;22070;50.922;5.430;2023-11-19T07:10:21;10.83;;;1.53;;
36001;SDS011;22070;50.922;5.430;2023-11-19T07:12:46;14.60;;;2.03;;
36001;SDS011;22070;50.922;5.430;2023-11-19T07:15:12;14.60;;;1.77;;
36001;SDS011;22070;50.922;5.430;2023-11-19T07:17:39;12.63;;;1.60;;
36001;SDS011;22070;50.922;5.430;2023-11-19T07:20:08;14.18;;;2.10;;
36001;SDS011;22070;50.922;5.430;2023-11-19T07:22:38;16.02;;;2.42;;
36001;SDS011;22070;50.922;5.430;2023-11-19T07:25:04;17.77;;;1.77;;
36001;SDS011;22070;50.922;5.430;2023-11-19T07:27:30;10.15;;;1.60;;
36001;SDS011;22070;50.922;5.430;2023-11-19T07:29:55;17.10;;;1.80;;
36001;SDS011;22070;50.922;5.430;2023-11-19T07:32:21;7.75;;;2.42;;
36001;SDS011;22070;50.922;5.430;2023-11-19T07:34:47;17.30;;;2.90;;
36001;SDS011;22070;50.922;5.430;2023-11-19T07:37:12;12.93;;;2.03;;
36001;SDS011;22070;50.922;5.430;2023-11-19T07:39:38;20.57;;;2.23;;
36001;SDS011;22070;50.922;5.430;2023-11-19T07:42:06;14.60;;;1.52;;
36001;SDS011;22070;50.922;5.430;2023-11-19T07:44:31;21.38;;;2.42;;
36001;SDS011;22070;50.922;5.430;2023-11-19T07:46:57;14.65;;;2.30;;
36001;SDS011;22070;50.922;5.430;2023-11-19T07:49:23;20.27;;;2.27;;
36001;SDS011;22070;50.922;5.430;2023-11-19T07:51:49;13.03;;;2.03;;
36001;SDS011;22070;50.922;5.430;2023-11-19T07:54:14;18.57;;;2.10;;
36001;SDS011;22070;50.922;5.430;2023-11-19T07:56:40;15.77;;;2.22;;
36001;SDS011;22070;50.922;5.430;2023-11-19T07:59:06;13.45;;;2.15;;
36001;SDS011;22070;50.922;5.430;2023-11-19T08:01:31;16.42;;;2.53;;
36001;SDS011;22070;50.922;5.430;2023-11-19T08:03:57;17.63;;;2.83;;
36001;SDS011;22070;50.922;5.430;2023-11-19T08:06:23;17.38;;;2.60;;
36001;SDS011;22070;50.922;5.430;2023-11-19T08:08:49;18.17;;;3.08;;
36001;SDS011;22070;50.922;5.430;2023-11-19T08:13:42;24.00;;;2.20;;
36001;SDS011;22070;50.922;5.430;2023-11-19T08:16:08;22.07;;;2.73;;
36001;SDS011;22070;50.922;5.430;2023-11-19T08:18:34;13.93;;;1.67;;
36001;SDS011;22070;50.922;5.430;2023-11-19T08:21:00;6.55;;;1.52;;
36001;SDS011;22070;50.922;5.430;2023-11-19T08:23:25;16.60;;;1.97;;
36001;SDS011;22070;50.922;5.430;2023-11-19T08:25:53;12.85;;;2.03;;
36001;SDS011;22070;50.922;5.430;2023-11-19T08:28:19;11.25;;;2.15;;
36001;SDS011;22070;50.922;5.430;2023-11-19T08:30:45;16.03;;;2.37;;
36001;SDS011;22070;50.922;5.430;2023-11-19T08:33:10;19.05;;;1.55;;
36001;SDS011;22070;50.922;5.430;2023-11-19T08:35:36;13.45;;;2.00;;
36001;SDS011;22070;50.922;5.430;2023-11-19T08:38:02;21.52;;;1.83;;
36001;SDS011;22070;50.922;5.430;2023-11-19T08:40:28;18.13;;;2.23;;
36001;SDS011;22070;50.922;5.430;2023-11-19T08:45:22;16.25;;;2.08;;
36001;SDS011;22070;50.922;5.430;2023-11-19T08:47:48;15.55;;;2.25;;
36001;SDS011;22070;50.922;5.430;2023-11-19T08:50:14;21.53;;;2.17;;
36001;SDS011;22070;50.922;5.430;2023-11-19T08:52:40;18.65;;;2.83;;
36001;SDS011;22070;50.922;5.430;2023-11-19T08:55:05;14.95;;;1.60;;
36001;SDS011;22070;50.922;5.430;2023-11-19T08:57:31;12.47;;;1.37;;
36001;SDS011;22070;50.922;5.430;2023-11-19T09:00:00;16.67;;;2.45;;
36001;SDS011;22070;50.922;5.430;2023-11-19T09:02:26;7.63;;;1.90;;
36001;SDS011;22070;50.922;5.430;2023-11-19T09:04:51;17.02;;;2.17;;
36001;SDS011;22070;50.922;5.430;2023-11-19T09:07:17;12.70;;;1.50;;
36001;SDS011;22070;50.922;5.430;2023-11-19T09:09:43;11.63;;;1.70;;
36001;SDS011;22070;50.922;5.430;2023-11-19T09:12:08;13.47;;;2.27;;
36001;SDS011;22070;50.922;5.430;2023-11-19T09:14:34;11.50;;;1.63;;
36001;SDS011;22070;50.922;5.430;2023-11-19T09:16:59;14.77;;;2.47;;
36001;SDS011;22070;50.922;5.430;2023-11-19T09:19:25;9.97;;;1.77;;
36001;SDS011;22070;50.922;5.430;2023-11-19T09:21:51;10.10;;;1.70;;
36001;SDS011;22070;50.922;5.430;2023-11-19T09:24:18;12.40;;;1.80;;
36001;SDS011;22070;50.922;5.430;2023-11-19T09:26:43;9.47;;;1.83;;
36001;SDS011;22070;50.922;5.430;2023-11-19T09:29:09;11.07;;;1.80;;
36001;SDS011;22070;50.922;5.430;2023-11-19T09:31:37;12.40;;;2.22;;
36001;SDS011;22070;50.922;5.430;2023-11-19T09:34:03;8.80;;;2.17;;
36001;SDS011;22070;50.922;5.430;2023-11-19T09:36:29;20.83;;;1.73;;
36001;SDS011;22070;50.922;5.430;2023-11-19T09:38:54;14.80;;;2.27;;
36001;SDS011;22070;50.922;5.430;2023-11-19T09:41:20;10.37;;;1.80;;
36001;SDS011;22070;50.922;5.430;2023-11-19T09:43:46;20.13;;;2.90;;
36001;SDS011;22070;50.922;5.430;2023-11-19T09:46:13;16.38;;;1.45;;
36001;SDS011;22070;50.922;5.430;2023-11-19T09:48:40;13.77;;;1.73;;
36001;SDS011;22070;50.922;5.430;2023-11-19T09:51:07;21.00;;;1.77;;
36001;SDS011;22070;50.922;5.430;2023-11-19T09:53:34;14.73;;;2.15;;
36001;SDS011;22070;50.922;5.430;2023-11-19T09:56:01;17.25;;;2.10;;
36001;SDS011;22070;50.922;5.430;2023-11-19T09:58:31;9.85;;;1.67;;
36001;SDS011;22070;50.922;5.430;2023-11-19T10:00:58;12.18;;;2.13;;
36001;SDS011;22070;50.922;5.430;2023-11-19T10:03:24;18.77;;;2.65;;
36001;SDS011;22070;50.922;5.430;2023-11-19T10:05:57;11.35;;;1.88;;
36001;SDS011;22070;50.922;5.430;2023-11-19T10:08:24;13.90;;;2.85;;
36001;SDS011;22070;50.922;5.430;2023-11-19T10:10:50;15.87;;;2.30;;
36001;SDS011;22070;50.922;5.430;2023-11-19T10:13:17;14.82;;;1.77;;
36001;SDS011;22070;50.922;5.430;2023-11-19T10:15:43;18.30;;;1.80;;
36001;SDS011;22070;50.922;5.430;2023-11-19T10:18:09;9.87;;;1.60;;
36001;SDS011;22070;50.922;5.430;2023-11-19T10:20:36;10.70;;;1.73;;
36001;SDS011;22070;50.922;5.430;2023-11-19T10:25:28;8.27;;;1.20;;
36001;SDS011;22070;50.922;5.430;2023-11-19T10:27:55;9.52;;;1.45;;
36001;SDS011;22070;50.922;5.430;2023-11-19T10:30:22;10.95;;;1.73;;
36001;SDS011;22070;50.922;5.430;2023-11-19T10:33:08;12.73;;;1.80;;
36001;SDS011;22070;50.922;5.430;2023-11-19T10:35:37;6.95;;;2.05;;
36001;SDS011;22070;50.922;5.430;2023-11-19T10:38:19;10.05;;;1.40;;
36001;SDS011;22070;50.922;5.430;2023-11-19T10:40:47;8.48;;;1.60;;
36001;SDS011;22070;50.922;5.430;2023-11-19T10:43:13;13.00;;;2.57;;
36001;SDS011;22070;50.922;5.430;2023-11-19T10:45:39;8.93;;;1.83;;
36001;SDS011;22070;50.922;5.430;2023-11-19T10:48:05;12.52;;;1.80;;
36001;SDS011;22070;50.922;5.430;2023-11-19T10:50:41;10.18;;;1.75;;
36001;SDS011;22070;50.922;5.430;2023-11-19T10:53:08;11.73;;;1.67;;
36001;SDS011;22070;50.922;5.430;2023-11-19T10:55:36;13.27;;;1.50;;
36001;SDS011;22070;50.922;5.430;2023-11-19T10:58:06;9.95;;;1.77;;
36001;SDS011;22070;50.922;5.430;2023-11-19T11:03:19;10.00;;;1.83;;
36001;SDS011;22070;50.922;5.430;2023-11-19T11:05:47;12.50;;;1.50;;
36001;SDS011;22070;50.922;5.430;2023-11-19T11:08:14;15.38;;;1.77;;
36001;SDS011;22070;50.922;5.430;2023-11-19T11:11:02;17.55;;;2.58;;
36001;SDS011;22070;50.922;5.430;2023-11-19T11:13:27;15.77;;;1.83;;
36001;SDS011;22070;50.922;5.430;2023-11-19T11:15:56;10.95;;;1.98;;
36001;SDS011;22070;50.922;5.430;2023-11-19T11:18:25;14.55;;;2.20;;
36001;SDS011;22070;50.922;5.430;2023-11-19T11:21:25;20.75;;;2.13;;
36001;SDS011;22070;50.922;5.430;2023-11-19T11:32:00;13.00;;;2.00;;
36001;SDS011;22070;50.922;5.430;2023-11-19T11:37:39;8.43;;;1.83;;
36001;SDS011;22070;50.922;5.430;2023-11-19T11:40:16;11.60;;;1.08;;
36001;SDS011;22070;50.922;5.430;2023-11-19T11:42:43;10.40;;;1.08;;
36001;SDS011;22070;50.922;5.430;2023-11-19T11:45:13;11.05;;;1.55;;
36001;SDS011;22070;50.922;5.430;2023-11-19T11:57:49;12.85;;;2.78;;
36001;SDS011;22070;50.922;5.430;2023-11-19T12:00:22;15.13;;;2.55;;
36001;SDS011;22070;50.922;5.430;2023-11-19T12:02:51;12.15;;;2.53;;
36001;SDS011;22070;50.922;5.430;2023-11-19T12:05:19;8.07;;;1.25;;
36001;SDS011;22070;50.922;5.430;2023-11-19T12:10:24;18.25;;;2.45;;
36001;SDS011;22070;50.922;5.430;2023-11-19T12:12:52;10.13;;;1.83;;
36001;SDS011;22070;50.922;5.430;2023-11-19T12:15:18;8.90;;;1.92;;
36001;SDS011;22070;50.922;5.430;2023-11-19T12:17:49;14.38;;;2.38;;
36001;SDS011;22070;50.922;5.430;2023-11-19T12:20:21;13.85;;;2.20;;
36001;SDS011;22070;50.922;5.430;2023-11-19T12:22:48;11.57;;;1.73;;
36001;SDS011;22070;50.922;5.430;2023-11-19T12:25:16;15.88;;;2.13;;
36001;SDS011;22070;50.922;5.430;2023-11-19T12:30:12;18.52;;;1.80;;
36001;SDS011;22070;50.922;5.430;2023-11-19T12:32:42;12.73;;;2.33;;
36001;SDS011;22070;50.922;5.430;2023-11-19T12:35:10;10.32;;;1.80;;
36001;SDS011;22070;50.922;5.430;2023-11-19T12:40:10;13.77;;;2.25;;
36001;SDS011;22070;50.922;5.430;2023-11-19T12:42:38;11.63;;;1.58;;
36001;SDS011;22070;50.922;5.430;2023-11-19T12:45:04;15.50;;;1.90;;
36001;SDS011;22070;50.922;5.430;2023-11-19T12:47:30;10.40;;;1.88;;
36001;SDS011;22070;50.922;5.430;2023-11-19T12:49:56;12.00;;;2.80;;
36001;SDS011;22070;50.922;5.430;2023-11-19T12:52:22;9.00;;;1.55;;
36001;SDS011;22070;50.922;5.430;2023-11-19T12:54:48;11.60;;;1.50;;
36001;SDS011;22070;50.922;5.430;2023-11-19T12:57:15;18.58;;;2.30;;
36001;SDS011;22070;50.922;5.430;2023-11-19T12:59:41;12.17;;;2.10;;
36001;SDS011;22070;50.922;5.430;2023-11-19T13:02:08;18.63;;;1.88;;
36001;SDS011;22070;50.922;5.430;2023-11-19T13:04:33;14.48;;;1.65;;
36001;SDS011;22070;50.922;5.430;2023-11-19T13:06:59;15.63;;;1.70;;
36001;SDS011;22070;50.922;5.430;2023-11-19T13:09:26;4.80;;;1.20;;
36001;SDS011;22070;50.922;5.430;2023-11-19T13:11:52;10.02;;;1.50;;
36001;SDS011;22070;50.922;5.430;2023-11-19T13:14:19;5.85;;;1.08;;
36001;SDS011;22070;50.922;5.430;2023-11-19T13:16:46;10.23;;;1.45;;
36001;SDS011;22070;50.922;5.430;2023-11-19T13:19:12;8.77;;;1.08;;
36001;SDS011;22070;50.922;5.430;2023-11-19T13:21:39;9.98;;;1.52;;
36001;SDS011;22070;50.922;5.430;2023-11-19T13:24:08;9.75;;;1.67;;
36001;SDS011;22070;50.922;5.430;2023-11-19T13:26:34;9.00;;;1.50;;
36001;SDS011;22070;50.922;5.430;2023-11-19T13:29:00;10.85;;;1.45;;
36001;SDS011;22070;50.922;5.430;2023-11-19T13:31:25;18.30;;;2.70;;
36001;SDS011;22070;50.922;5.430;2023-11-19T13:33:51;11.37;;;1.33;;
36001;SDS011;22070;50.922;5.430;2023-11-19T13:36:17;7.03;;;1.38;;
36001;SDS011;22070;50.922;5.430;2023-11-19T13:38:43;14.27;;;2.20;;
36001;SDS011;22070;50.922;5.430;2023-11-19T13:41:12;12.75;;;1.73;;
36001;SDS011;22070;50.922;5.430;2023-11-19T13:43:38;8.65;;;1.60;;
36001;SDS011;22070;50.922;5.430;2023-11-19T13:46:04;11.55;;;1.30;;
36001;SDS011;22070;50.922;5.430;2023-11-19T13:48:30;8.57;;;1.20;;
36001;SDS011;22070;50.922;5.430;2023-11-19T13:50:56;8.60;;;1.90;;
36001;SDS011;22070;50.922;5.430;2023-11-19T13:53:22;15.83;;;1.57;;
36001;SDS011;22070;50.922;5.430;2023-11-19T13:55:48;9.50;;;2.03;;
36001;SDS011;22070;50.922;5.430;2023-11-19T13:58:14;13.83;;;1.80;;
36001;SDS011;22070;50.922;5.430;2023-11-19T14:00:41;16.42;;;2.55;;
36001;SDS011;22070;50.922;5.430;2023-11-19T14:03:07;14.13;;;2.72;;
36001;SDS011;22070;50.922;5.430;2023-11-19T14:05:33;15.10;;;2.13;;
36001;SDS011;22070;50.922;5.430;2023-11-19T14:07:58;10.97;;;2.63;;
36001;SDS011;22070;50.922;5.430;2023-11-19T14:10:26;16.48;;;2.42;;
36001;SDS011;22070;50.922;5.430;2023-11-19T14:12:51;14.43;;;1.98;;
36001;SDS011;22070;50.922;5.430;2023-11-19T14:15:17;8.53;;;1.97;;
36001;SDS011;22070;50.922;5.430;2023-11-19T14:17:43;15.30;;;1.93;;
36001;SDS011;22070;50.922;5.430;2023-11-19T14:20:09;8.53;;;0.90;;
36001;SDS011;22070;50.922;5.430;2023-11-19T14:22:44;11.60;;;1.65;;
36001;SDS011;22070;50.922;5.430;2023-11-19T14:25:14;10.05;;;1.60;;
36001;SDS011;22070;50.922;5.430;2023-11-19T14:27:41;4.57;;;1.05;;
36001;SDS011;22070;50.922;5.430;2023-11-19T14:30:08;13.55;;;1.83;;
36001;SDS011;22070;50.922;5.430;2023-11-19T14:32:36;13.10;;;1.70;;
36001;SDS011;22070;50.922;5.430;2023-11-19T14:35:02;17.20;;;1.88;;
36001;SDS011;22070;50.922;5.430;2023-11-19T14:37:32;12.27;;;1.65;;
36001;SDS011;22070;50.922;5.430;2023-11-19T14:39:58;16.87;;;1.80;;
36001;SDS011;22070;50.922;5.430;2023-11-19T14:42:24;10.55;;;1.65;;
36001;SDS011;22070;50.922;5.430;2023-11-19T14:44:52;9.50;;;1.75;;
36001;SDS011;22070;50.922;5.430;2023-11-19T14:47:19;7.93;;;1.67;;
36001;SDS011;22070;50.922;5.430;2023-11-19T14:49:45;14.20;;;1.70;;
36001;SDS011;22070;50.922;5.430;2023-11-19T14:52:11;7.45;;;1.83;;
36001;SDS011;22070;50.922;5.430;2023-11-19T14:54:37;8.03;;;1.77;;
36001;SDS011;22070;50.922;5.430;2023-11-19T14:57:03;16.52;;;1.95;;
36001;SDS011;22070;50.922;5.430;2023-11-19T14:59:30;15.02;;;2.00;;
36001;SDS011;22070;50.922;5.430;2023-11-19T15:01:56;15.75;;;1.77;;
36001;SDS011;22070;50.922;5.430;2023-11-19T15:04:22;13.13;;;1.90;;
36001;SDS011;22070;50.922;5.430;2023-11-19T15:06:48;15.27;;;2.07;;
36001;SDS011;22070;50.922;5.430;2023-11-19T15:09:13;14.32;;;2.05;;
36001;SDS011;22070;50.922;5.430;2023-11-19T15:11:42;17.35;;;1.80;;
36001;SDS011;22070;50.922;5.430;2023-11-19T15:14:10;14.93;;;1.48;;
36001;SDS011;22070;50.922;5.430;2023-11-19T15:16:39;12.23;;;1.65;;
36001;SDS011;22070;50.922;5.430;2023-11-19T15:19:05;13.10;;;1.67;;
36001;SDS011;22070;50.922;5.430;2023-11-19T15:21:33;12.05;;;1.63;;
36001;SDS011;22070;50.922;5.430;2023-11-19T15:23:59;15.80;;;1.77;;
36001;SDS011;22070;50.922;5.430;2023-11-19T15:26:25;19.73;;;2.00;;